Inkster, Michigan
Current Conditions -  °F | °C
As of 10:53 AM on Sunday 23 Nov 2014 (Local Time) from KDTW Reporting Station
Haze Haze  
Wind Chill: 42°   Ceiling: 12000
Heat Index: 46°   Visibility: 6mi
Dew Point: 43°   Wind: 7mph
Humidity: 89%   Direction: 160°SSE
Pressure: 29.93"   Gusts: NA
Location:  42.3°N, 83.31°W
Report Text: KDTW 231553Z 16006KT 6SM BR FEW035 SCT080 OVC120 08/06 A2993 RMK AO2 RAE23 SLP139 P0000 T00780061 $
Loading
Personal Weather Stations






























Interactive Weather Map New forecast layout! Learn more

10-Day Weather Forecast

Advertisements
Track Severe Weather on mobile